Aviation Digital Data Service (ADDS)

Output produced by METARs form (0758 UTC 20 December 2014)
found at http://aviationweather.gov/adds/metars/
 
KART 200520Z 2006/2106 VRB03KT P6SM FEW250 
     FM202300 VRB03KT P6SM BKN030